createdAt,value
2019-04-06T00:01:47.721Z,100692.56
2019-04-06T00:04:16.195Z,100697.39
2019-04-06T00:06:44.668Z,100691.83
2019-04-06T00:09:13.181Z,100694.00
2019-04-06T00:11:41.656Z,100691.06
2019-04-06T00:14:10.198Z,100692.40
2019-04-06T00:16:38.726Z,100695.03
2019-04-06T00:19:07.229Z,100700.69
2019-04-06T00:21:35.678Z,100696.02
2019-04-06T00:24:04.209Z,100700.82
2019-04-06T00:26:32.680Z,100703.50
2019-04-06T00:29:02.291Z,100700.95
2019-04-06T00:31:40.941Z,100701.47
2019-04-06T00:34:09.412Z,100708.41
2019-04-06T00:36:37.883Z,100705.86
2019-04-06T00:39:06.848Z,100709.33
2019-04-06T00:41:35.323Z,100708.41
2019-04-06T00:44:03.859Z,100707.51
2019-04-06T00:46:32.358Z,100708.25
2019-04-06T00:49:00.837Z,100701.25
2019-04-06T00:51:29.296Z,100703.32
2019-04-06T00:53:57.815Z,100702.38
2019-04-06T00:56:26.285Z,100706.12
2019-04-06T00:58:54.766Z,100700.03
2019-04-06T01:01:23.268Z,100702.53
2019-04-06T01:03:51.744Z,100703.34
2019-04-06T01:06:20.286Z,100699.42
2019-04-06T01:08:48.824Z,100706.33
2019-04-06T01:11:17.361Z,100708.96
2019-04-06T01:13:45.828Z,100713.23
2019-04-06T01:16:14.805Z,100711.03
2019-04-06T01:18:43.288Z,100715.77
2019-04-06T01:21:11.775Z,100718.79
2019-04-06T01:23:40.299Z,100724.83
2019-04-06T01:26:08.836Z,100718.80
2019-04-06T01:28:37.322Z,100722.30
2019-04-06T01:31:23.824Z,100713.71
2019-04-06T01:33:52.610Z,100718.55
2019-04-06T01:36:21.086Z,100716.00
2019-04-06T01:38:49.581Z,100718.60
2019-04-06T01:41:18.045Z,100724.25
2019-04-06T01:43:46.506Z,100720.80
2019-04-06T01:46:15.015Z,100722.14
2019-04-06T01:48:43.491Z,100719.55
2019-04-06T01:51:12.025Z,100721.75
2019-04-06T01:53:40.604Z,100721.80
2019-04-06T01:56:18.060Z,100714.50
2019-04-06T01:58:39.258Z,100719.73
2019-04-06T02:01:18.371Z,100720.59
2019-04-06T02:03:46.883Z,100718.91
2019-04-06T02:06:15.364Z,100717.19
2019-04-06T02:08:43.867Z,100717.61
2019-04-06T02:11:12.334Z,100716.31
2019-04-06T02:13:40.794Z,100730.05
2019-04-06T02:16:09.759Z,100725.73
2019-04-06T02:18:38.224Z,100729.62
2019-04-06T02:21:06.828Z,100729.58
2019-04-06T02:23:35.280Z,100730.88
2019-04-06T02:26:03.774Z,100730.44
2019-04-06T02:28:32.220Z,100728.70
2019-04-06T02:31:08.021Z,100732.59
2019-04-06T02:33:54.699Z,100729.56
2019-04-06T02:36:37.111Z,100734.27
2019-04-06T02:39:08.417Z,100732.06
2019-04-06T02:41:47.650Z,100736.38
2019-04-06T02:44:16.125Z,100735.91
2019-04-06T02:46:44.600Z,100734.56
2019-04-06T02:49:13.094Z,100736.68
2019-04-06T02:51:41.571Z,100739.66
2019-04-06T02:54:10.031Z,100738.78
2019-04-06T02:56:45.575Z,100733.56
2019-04-06T02:59:08.727Z,100735.67
2019-04-06T03:01:37.259Z,100737.35
2019-04-06T03:04:05.813Z,100732.60
2019-04-06T03:06:34.303Z,100739.08
2019-04-06T03:09:02.839Z,100735.15
2019-04-06T03:11:31.318Z,100738.17
2019-04-06T03:14:00.016Z,100736.88
2019-04-06T03:16:28.417Z,100739.42
2019-04-06T03:18:57.247Z,100739.42
2019-04-06T03:21:25.701Z,100743.30
2019-04-06T03:23:54.172Z,100742.91
2019-04-06T03:26:22.751Z,100743.34
2019-04-06T03:28:51.227Z,100741.19
2019-04-06T03:31:24.214Z,100738.98
2019-04-06T03:33:49.944Z,100740.22
2019-04-06T03:36:18.439Z,100740.17
2019-04-06T03:38:47.223Z,100747.85
2019-04-06T03:41:15.719Z,100741.75
2019-04-06T03:43:44.175Z,100748.17
2019-04-06T03:46:12.642Z,100746.79
2019-04-06T03:48:41.136Z,100745.44
2019-04-06T03:51:09.908Z,100744.52
2019-04-06T03:53:38.445Z,100742.27
2019-04-06T03:56:06.951Z,100744.36
2019-04-06T03:58:35.486Z,100745.17
2019-04-06T04:01:04.019Z,100742.05
2019-04-06T04:03:32.536Z,100746.64
2019-04-06T04:06:01.006Z,100743.56
2019-04-06T04:08:29.463Z,100752.94
2019-04-06T04:10:57.956Z,100749.81
2019-04-06T04:13:26.519Z,100750.58
2019-04-06T04:15:57.147Z,100753.48
2019-04-06T04:18:25.242Z,100759.50
2019-04-06T04:20:53.700Z,100760.33
2019-04-06T04:23:22.195Z,100757.72
2019-04-06T04:25:50.679Z,100761.12
2019-04-06T04:28:19.142Z,100759.84
2019-04-06T04:30:47.606Z,100756.81
2019-04-06T04:33:16.421Z,100764.57
2019-04-06T04:35:44.950Z,100765.91
2019-04-06T04:38:13.427Z,100762.05
2019-04-06T04:40:42.041Z,100772.92
2019-04-06T04:43:10.505Z,100777.73
2019-04-06T04:45:38.957Z,100779.94
2019-04-06T04:48:07.464Z,100779.56
2019-04-06T04:50:35.925Z,100773.58
2019-04-06T04:53:04.397Z,100770.62
2019-04-06T04:55:32.973Z,100786.24
2019-04-06T04:58:01.436Z,100777.67
2019-04-06T05:00:30.041Z,100772.98
2019-04-06T05:02:58.470Z,100775.20
2019-04-06T05:05:27.000Z,100778.27
2019-04-06T05:07:55.467Z,100771.86
2019-04-06T05:10:23.984Z,100776.66
2019-04-06T05:12:52.444Z,100785.34
2019-04-06T05:15:33.231Z,100780.70
2019-04-06T05:18:01.842Z,100774.28
2019-04-06T05:20:30.299Z,100782.10
2019-04-06T05:22:58.800Z,100778.27
2019-04-06T05:25:27.270Z,100784.36
2019-04-06T05:27:55.734Z,100782.25
2019-04-06T05:30:24.217Z,100781.83
2019-04-06T05:32:52.679Z,100790.55
2019-04-06T05:35:21.152Z,100788.83
2019-04-06T05:37:49.640Z,100790.61
2019-04-06T05:40:18.099Z,100794.53
2019-04-06T05:42:46.791Z,100798.43
2019-04-06T05:45:15.324Z,100797.18
2019-04-06T05:47:43.771Z,100798.48
2019-04-06T05:50:12.293Z,100803.75
2019-04-06T05:52:40.872Z,100808.12
2019-04-06T05:55:09.502Z,100810.77
2019-04-06T05:57:38.105Z,100814.27
2019-04-06T06:00:09.851Z,100810.91
2019-04-06T06:02:41.323Z,100818.35
2019-04-06T06:05:08.582Z,100821.48
2019-04-06T06:07:38.674Z,100824.64
2019-04-06T06:10:07.899Z,100821.77
2019-04-06T06:12:36.362Z,100818.45
2019-04-06T06:15:06.586Z,100825.11
2019-04-06T06:17:35.047Z,100824.82
2019-04-06T06:20:04.845Z,100824.95
2019-04-06T06:22:33.422Z,100822.92
2019-04-06T06:25:01.887Z,100821.28
2019-04-06T06:27:30.438Z,100819.25
2019-04-06T06:29:58.934Z,100815.00
2019-04-06T06:32:27.394Z,100811.59
2019-04-06T06:34:57.516Z,100786.56
2019-04-06T06:37:26.212Z,100809.90
2019-04-06T06:39:54.684Z,100805.58
2019-04-06T06:42:23.232Z,100818.59
2019-04-06T06:44:52.925Z,100816.94
2019-04-06T06:47:21.470Z,100807.16
2019-04-06T06:49:50.083Z,100812.50
2019-04-06T06:52:18.549Z,100811.39
2019-04-06T06:54:47.070Z,100812.08
2019-04-06T06:57:18.318Z,100813.15
2019-04-06T06:59:46.914Z,100813.78
2019-04-06T07:02:15.377Z,100826.09
2019-04-06T07:04:43.862Z,100823.22
2019-04-06T07:07:13.591Z,100834.56
2019-04-06T07:09:43.708Z,100828.56
2019-04-06T07:12:12.739Z,100827.77
2019-04-06T07:14:41.229Z,100833.92
2019-04-06T07:17:09.695Z,100834.47
2019-04-06T07:19:38.350Z,100834.58
2019-04-06T07:22:06.836Z,100830.75
2019-04-06T07:24:35.284Z,100830.87
2019-04-06T07:27:03.760Z,100827.95
2019-04-06T07:29:32.284Z,100828.09
2019-04-06T07:32:00.829Z,100828.23
2019-04-06T07:34:29.305Z,100830.13
2019-04-06T07:36:57.812Z,100823.73
2019-04-06T07:39:26.265Z,100824.30
2019-04-06T07:41:54.741Z,100808.33
2019-04-06T07:44:23.386Z,100813.16
2019-04-06T07:46:51.932Z,100817.98
2019-04-06T07:49:20.410Z,100808.03
2019-04-06T07:51:49.100Z,100812.39
2019-04-06T07:54:17.562Z,100807.19
2019-04-06T07:56:46.044Z,100811.11
2019-04-06T07:59:14.759Z,100816.31
2019-04-06T08:01:43.253Z,100818.49
2019-04-06T08:04:11.710Z,100824.56
2019-04-06T08:06:40.249Z,100822.84
2019-04-06T08:09:08.930Z,100822.01
2019-04-06T08:11:37.412Z,100826.37
2019-04-06T08:14:05.918Z,100824.17
2019-04-06T08:16:34.620Z,100824.16
2019-04-06T08:19:03.363Z,100813.73
2019-04-06T08:21:31.801Z,100815.88
2019-04-06T08:24:00.264Z,100818.92
2019-04-06T08:26:28.724Z,100821.06
2019-04-06T08:29:01.968Z,100822.34
2019-04-06T08:31:27.392Z,100828.86
2019-04-06T08:33:55.860Z,100829.28
2019-04-06T08:36:24.385Z,100823.17
2019-04-06T08:38:52.855Z,100824.45
2019-04-06T08:41:21.339Z,100827.01
2019-04-06T08:43:49.837Z,100826.53
2019-04-06T08:46:18.431Z,100811.25
2019-04-06T08:48:46.954Z,100819.52
2019-04-06T08:51:15.517Z,100815.52
2019-04-06T08:53:44.118Z,100808.03
2019-04-06T08:56:12.548Z,100808.41
2019-04-06T08:58:41.054Z,100808.73
2019-04-06T09:01:09.509Z,100811.26
2019-04-06T09:03:38.105Z,100815.53
2019-04-06T09:06:06.811Z,100813.27
2019-04-06T09:08:35.303Z,100813.16
2019-04-06T09:11:03.955Z,100812.22
2019-04-06T09:13:32.417Z,100812.09
2019-04-06T09:16:02.591Z,100810.66
2019-04-06T09:18:31.085Z,100811.39
2019-04-06T09:20:59.577Z,100816.53
2019-04-06T09:23:28.046Z,100817.30
2019-04-06T09:25:56.523Z,100818.52
2019-04-06T09:28:25.377Z,100805.75
2019-04-06T09:30:54.214Z,100804.30
2019-04-06T09:33:22.909Z,100808.12
2019-04-06T09:35:51.424Z,100807.56
2019-04-06T09:38:19.846Z,100807.47
2019-04-06T09:40:49.399Z,100800.34
2019-04-06T09:43:18.114Z,100803.26
2019-04-06T09:46:03.504Z,100789.55
2019-04-06T09:48:36.600Z,100794.21
2019-04-06T09:51:22.979Z,100794.53
2019-04-06T09:54:11.490Z,100796.97
2019-04-06T09:56:41.613Z,100792.81
2019-04-06T09:59:17.903Z,100791.77
2019-04-06T10:01:59.644Z,100791.59
2019-04-06T10:04:45.741Z,100785.27
2019-04-06T10:07:32.433Z,100791.67
2019-04-06T10:10:17.586Z,100788.50
2019-04-06T10:12:47.722Z,100788.38
2019-04-06T10:15:34.162Z,100799.27
2019-04-06T10:18:04.285Z,100796.95
2019-04-06T10:20:46.345Z,100788.12
2019-04-06T10:23:16.719Z,100796.77
2019-04-06T10:25:50.072Z,100784.87
2019-04-06T10:28:23.425Z,100790.42
2019-04-06T10:31:09.746Z,100785.94
2019-04-06T10:33:48.858Z,100785.82
2019-04-06T10:36:24.893Z,100780.41
2019-04-06T10:39:06.781Z,100780.70
2019-04-06T10:41:36.883Z,100776.66
2019-04-06T10:44:23.444Z,100775.66
2019-04-06T10:46:59.310Z,100777.27
2019-04-06T10:49:44.470Z,100773.70
2019-04-06T10:52:32.048Z,100773.98
2019-04-06T10:55:10.820Z,100774.22
2019-04-06T10:57:44.056Z,100768.85
2019-04-06T11:00:14.332Z,100770.98
2019-04-06T11:02:53.298Z,100769.13
2019-04-06T11:05:23.404Z,100764.15
2019-04-06T11:07:56.284Z,100768.00
2019-04-06T11:10:29.266Z,100767.00
2019-04-06T11:13:11.085Z,100765.12
2019-04-06T11:15:46.889Z,100772.00
2019-04-06T11:18:19.699Z,100764.92
2019-04-06T11:20:49.816Z,100762.66
2019-04-06T11:23:31.567Z,100766.55
2019-04-06T11:26:17.800Z,100766.92
2019-04-06T11:28:59.803Z,100761.17
2019-04-06T11:31:46.048Z,100761.52
2019-04-06T11:34:32.189Z,100765.36
2019-04-06T11:37:18.724Z,100758.66
2019-04-06T11:40:06.795Z,100758.08
2019-04-06T11:42:52.252Z,100756.23
2019-04-06T11:45:38.834Z,100758.70
2019-04-06T11:48:11.924Z,100759.01
2019-04-06T11:50:44.988Z,100753.58
2019-04-06T11:53:21.536Z,100748.64
2019-04-06T11:55:52.330Z,100749.88
2019-04-06T11:58:34.696Z,100740.55
2019-04-06T12:01:13.401Z,100748.30
2019-04-06T12:03:43.508Z,100749.50
2019-04-06T12:06:14.381Z,100742.80
2019-04-06T12:08:44.486Z,100744.39
2019-04-06T12:11:17.351Z,100738.99
2019-04-06T12:13:56.490Z,100744.60
2019-04-06T12:16:35.721Z,100745.73
2019-04-06T12:19:08.604Z,100738.50
2019-04-06T12:21:55.072Z,100737.88
2019-04-06T12:24:40.279Z,100740.81
2019-04-06T12:27:10.570Z,100737.50
2019-04-06T12:29:40.675Z,100735.58
2019-04-06T12:32:16.550Z,100733.27
2019-04-06T12:34:49.318Z,100735.77
2019-04-06T12:37:28.309Z,100728.17
2019-04-06T12:40:16.476Z,100733.74
2019-04-06T12:42:58.583Z,100725.72
2019-04-06T12:45:44.999Z,100723.04
2019-04-06T12:48:15.165Z,100728.67
2019-04-06T12:50:45.212Z,100718.47
2019-04-06T12:53:21.091Z,100726.28
2019-04-06T12:56:07.914Z,100717.00
2019-04-06T12:58:38.142Z,100721.33
2019-04-06T13:01:21.087Z,100720.36
2019-04-06T13:03:57.198Z,100713.30
2019-04-06T13:06:44.172Z,100717.22
2019-04-06T13:09:17.030Z,100718.11
2019-04-06T13:11:53.142Z,100712.55
2019-04-06T13:14:23.259Z,100713.44
2019-04-06T13:16:56.362Z,100705.98
2019-04-06T13:19:26.466Z,100707.30
2019-04-06T13:21:56.607Z,100707.77
2019-04-06T13:24:26.713Z,100704.66
2019-04-06T13:27:02.808Z,100707.27
2019-04-06T13:29:38.655Z,100699.73
2019-04-06T13:32:25.315Z,100703.55
2019-04-06T13:34:55.420Z,100697.76
2019-04-06T13:37:29.034Z,100703.08
2019-04-06T13:39:59.170Z,100700.05
2019-04-06T13:42:29.281Z,100702.27
2019-04-06T13:45:11.273Z,100704.91
2019-04-06T13:47:44.070Z,100700.55
2019-04-06T13:50:30.753Z,100698.77
2019-04-06T13:53:01.632Z,100697.87
2019-04-06T13:55:43.667Z,100690.45
2019-04-06T13:58:16.962Z,100696.59
2019-04-06T14:01:14.777Z,100690.45
2019-04-06T14:03:43.701Z,100692.16
2019-04-06T14:06:17.552Z,100690.02
2019-04-06T14:08:53.515Z,100691.34
2019-04-06T14:11:32.552Z,100691.77
2019-04-06T14:14:03.117Z,100687.34
2019-04-06T14:16:35.643Z,100687.34
2019-04-06T14:19:21.719Z,100689.16
2019-04-06T14:21:51.846Z,100691.30
2019-04-06T14:24:26.336Z,100690.87
2019-04-06T14:27:02.270Z,100695.27
2019-04-06T14:29:35.385Z,100691.70
2019-04-06T14:32:08.300Z,100691.77
2019-04-06T14:34:56.560Z,100694.84
2019-04-06T14:37:29.415Z,100686.52
2019-04-06T14:40:08.549Z,100695.77
2019-04-06T14:42:54.786Z,100697.66
2019-04-06T14:45:30.539Z,100694.66
2019-04-06T14:48:03.838Z,100696.02
2019-04-06T14:50:34.199Z,100689.88
2019-04-06T14:53:04.716Z,100690.73
2019-04-06T14:55:50.064Z,100699.13
2019-04-06T14:58:35.398Z,100689.45
2019-04-06T15:01:17.755Z,100687.34
2019-04-06T15:03:47.968Z,100679.07
2019-04-06T15:06:18.119Z,100687.42
2019-04-06T15:09:04.584Z,100680.89
2019-04-06T15:11:34.939Z,100686.56
2019-04-06T15:14:05.055Z,100686.10
2019-04-06T15:16:44.605Z,100684.42
2019-04-06T15:19:20.438Z,100684.03
2019-04-06T15:21:53.107Z,100684.53
2019-04-06T15:24:26.310Z,100688.56
2019-04-06T15:27:02.332Z,100685.46
2019-04-06T15:29:32.406Z,100685.03
2019-04-06T15:32:02.514Z,100683.28
2019-04-06T15:34:48.959Z,100686.35
2019-04-06T15:37:21.491Z,100684.60
2019-04-06T15:40:07.862Z,100681.14
2019-04-06T15:42:37.973Z,100684.75
2019-04-06T15:45:10.959Z,100683.96
2019-04-06T15:47:41.091Z,100687.06
2019-04-06T15:50:11.257Z,100683.61
2019-04-06T15:52:50.457Z,100681.46
2019-04-06T15:55:35.553Z,100683.75
2019-04-06T15:58:17.290Z,100683.00
2019-04-06T16:00:47.401Z,100685.67
2019-04-06T16:03:26.938Z,100687.16
2019-04-06T16:05:59.722Z,100678.92
2019-04-06T16:08:32.587Z,100685.16
2019-04-06T16:11:17.932Z,100686.97
2019-04-06T16:13:50.484Z,100680.55
2019-04-06T16:16:20.586Z,100680.62
2019-04-06T16:19:00.028Z,100681.17
2019-04-06T16:21:48.465Z,100684.31
2019-04-06T16:24:28.466Z,100683.09
2019-04-06T16:27:09.528Z,100685.04
2019-04-06T16:29:39.865Z,100685.23
2019-04-06T16:32:12.409Z,100681.05
2019-04-06T16:34:41.829Z,100682.13
2019-04-06T16:37:15.059Z,100691.59
2019-04-06T16:39:47.930Z,100687.82
2019-04-06T16:42:18.041Z,100693.68
2019-04-06T16:44:51.112Z,100691.20
2019-04-06T16:47:21.475Z,100687.83
2019-04-06T16:49:51.604Z,100688.44
2019-04-06T16:52:36.763Z,100696.40
2019-04-06T16:55:22.636Z,100696.12
2019-04-06T16:58:08.666Z,100698.91
2019-04-06T17:00:54.375Z,100699.56
2019-04-06T17:03:24.648Z,100698.52
2019-04-06T17:06:06.760Z,100709.21
2019-04-06T17:08:53.176Z,100711.24
2019-04-06T17:11:38.360Z,100715.03
2019-04-06T17:14:24.797Z,100713.61
2019-04-06T17:16:54.868Z,100711.67
2019-04-06T17:19:27.914Z,100709.72
2019-04-06T17:21:58.085Z,100716.89
2019-04-06T17:24:43.512Z,100720.64
2019-04-06T17:27:13.819Z,100723.97
2019-04-06T17:29:53.325Z,100718.97
2019-04-06T17:32:34.417Z,100720.53
2019-04-06T17:35:04.246Z,100733.06
2019-04-06T17:37:42.906Z,100725.41
2019-04-06T17:40:13.017Z,100724.30
2019-04-06T17:42:49.008Z,100720.97
2019-04-06T17:45:34.662Z,100730.78
2019-04-06T17:48:21.313Z,100727.04
2019-04-06T17:50:54.543Z,100725.92
2019-04-06T17:53:34.275Z,100734.80
2019-04-06T17:56:16.890Z,100727.92
2019-04-06T17:59:03.032Z,100739.05
2019-04-06T18:01:36.338Z,100733.48
2019-04-06T18:04:18.535Z,100737.95
2019-04-06T18:06:48.609Z,100737.95
2019-04-06T18:09:21.775Z,100742.80
2019-04-06T18:11:55.175Z,100746.86
2019-04-06T18:14:24.047Z,100747.94
2019-04-06T18:16:52.791Z,100753.00
2019-04-06T18:19:21.547Z,100756.28
2019-04-06T18:21:50.266Z,100759.09
2019-04-06T18:24:19.483Z,100750.97
2019-04-06T18:26:48.033Z,100756.34
2019-04-06T18:29:16.501Z,100759.53
2019-04-06T18:31:49.312Z,100761.81
2019-04-06T18:34:18.340Z,100760.17
2019-04-06T18:36:48.473Z,100763.72
2019-04-06T18:39:18.599Z,100768.57
2019-04-06T18:41:47.123Z,100767.77
2019-04-06T18:44:15.662Z,100771.34
2019-04-06T18:46:44.122Z,100776.67
2019-04-06T18:49:12.615Z,100775.00
2019-04-06T18:51:41.087Z,100780.27
2019-04-06T18:54:09.943Z,100783.78
2019-04-06T18:56:38.414Z,100786.47
2019-04-06T18:59:07.869Z,100791.76
2019-04-06T19:01:36.441Z,100785.70
2019-04-06T19:04:04.958Z,100782.66
2019-04-06T19:06:33.798Z,100787.95
2019-04-06T19:09:02.337Z,100789.69
2019-04-06T19:11:31.318Z,100792.33
2019-04-06T19:14:00.234Z,100798.45
2019-04-06T19:16:28.743Z,100791.48
2019-04-06T19:18:57.290Z,100791.50
2019-04-06T19:21:25.753Z,100792.81
2019-04-06T19:23:54.226Z,100794.14
2019-04-06T19:26:23.098Z,100790.67
2019-04-06T19:28:51.593Z,100785.46
2019-04-06T19:31:20.476Z,100788.89
2019-04-06T19:33:49.037Z,100784.98
2019-04-06T19:36:18.072Z,100782.38
2019-04-06T19:38:46.550Z,100782.81
2019-04-06T19:41:15.078Z,100787.59
2019-04-06T19:43:43.524Z,100792.34
2019-04-06T19:46:12.346Z,100793.64
2019-04-06T19:48:41.267Z,100793.60
2019-04-06T19:51:10.369Z,100789.23
2019-04-06T19:53:39.081Z,100787.44
2019-04-06T19:56:07.739Z,100790.88
2019-04-06T19:58:36.232Z,100785.66
2019-04-06T20:01:04.786Z,100789.06
2019-04-06T20:03:36.013Z,100792.05
2019-04-06T20:06:03.948Z,100792.45
2019-04-06T20:08:32.899Z,100798.52
2019-04-06T20:11:01.994Z,100791.50
2019-04-06T20:13:30.471Z,100796.25
2019-04-06T20:15:58.936Z,100791.02
2019-04-06T20:18:27.812Z,100794.42
2019-04-06T20:20:56.395Z,100790.92
2019-04-06T20:23:25.311Z,100794.38
2019-04-06T20:25:54.463Z,100798.27
2019-04-06T20:28:23.350Z,100789.58
2019-04-06T20:30:52.183Z,100786.53
2019-04-06T20:33:20.754Z,100780.88
2019-04-06T20:35:49.392Z,100778.23
2019-04-06T20:38:17.976Z,100776.91
2019-04-06T20:40:47.072Z,100782.07
2019-04-06T20:43:15.789Z,100780.75
2019-04-06T20:45:44.329Z,100782.87
2019-04-06T20:48:13.026Z,100780.28
2019-04-06T20:50:42.057Z,100779.37
2019-04-06T20:53:10.530Z,100778.05
2019-04-06T20:55:39.064Z,100779.33
2019-04-06T20:58:07.546Z,100780.16
2019-04-06T21:00:38.088Z,100784.02
2019-04-06T21:03:06.589Z,100781.34
2019-04-06T21:05:35.084Z,100778.27
2019-04-06T21:08:03.563Z,100786.45
2019-04-06T21:10:32.657Z,100783.34
2019-04-06T21:13:01.230Z,100786.33
2019-04-06T21:15:29.702Z,100790.95
2019-04-06T21:17:58.712Z,100790.01
2019-04-06T21:20:27.638Z,100787.36
2019-04-06T21:22:56.324Z,100790.30
2019-04-06T21:25:24.820Z,100793.71
2019-04-06T21:27:53.481Z,100787.09
2019-04-06T21:30:22.454Z,100786.64
2019-04-06T21:32:51.462Z,100784.41
2019-04-06T21:35:20.022Z,100783.05
2019-04-06T21:37:48.485Z,100782.98
2019-04-06T21:40:17.054Z,100790.72
2019-04-06T21:42:45.985Z,100781.56
2019-04-06T21:45:15.264Z,100782.39
2019-04-06T21:47:44.212Z,100749.25
2019-04-06T21:50:12.933Z,100777.53
2019-04-06T21:52:41.400Z,100770.98
2019-04-06T21:55:12.693Z,100774.84
2019-04-06T21:57:41.157Z,100772.20
2019-04-06T22:00:11.149Z,100765.69
2019-04-06T22:02:40.186Z,100769.52
2019-04-06T22:05:09.532Z,100768.17
2019-04-06T22:07:47.208Z,100766.34
2019-04-06T22:10:08.402Z,100764.54
2019-04-06T22:12:37.959Z,100767.49
2019-04-06T22:15:07.811Z,100761.80
2019-04-06T22:17:36.302Z,100764.75
2019-04-06T22:20:06.143Z,100769.47
2019-04-06T22:22:35.323Z,100758.11
2019-04-06T22:25:04.534Z,100765.81
2019-04-06T22:27:33.314Z,100764.88
2019-04-06T22:30:01.982Z,100756.55
2019-04-06T22:32:30.609Z,100758.63
2019-04-06T22:34:59.531Z,100757.25
2019-04-06T22:37:28.049Z,100754.58
2019-04-06T22:39:56.948Z,100749.74
2019-04-06T22:42:26.100Z,100748.41
2019-04-06T22:44:55.958Z,100752.64
2019-04-06T22:47:24.572Z,100745.22
2019-04-06T22:49:53.655Z,100754.20
2019-04-06T22:52:22.309Z,100752.37
2019-04-06T22:54:51.390Z,100753.11
2019-04-06T22:57:20.328Z,100755.56
2019-04-06T22:59:49.428Z,100758.45
2019-04-06T23:02:17.882Z,100751.78
2019-04-06T23:04:50.973Z,100750.73
2019-04-06T23:07:20.127Z,100755.77
2019-04-06T23:09:48.573Z,100755.22
2019-04-06T23:12:17.041Z,100753.78
2019-04-06T23:14:45.651Z,100746.73
2019-04-06T23:17:14.682Z,100753.59
2019-04-06T23:19:43.198Z,100755.69
2019-04-06T23:22:11.687Z,100755.64
2019-04-06T23:24:40.159Z,100752.14
2019-04-06T23:27:08.625Z,100749.05
2019-04-06T23:29:37.204Z,100744.69
2019-04-06T23:32:05.732Z,100745.94
2019-04-06T23:34:34.209Z,100751.09
2019-04-06T23:37:02.707Z,100752.30
2019-04-06T23:39:31.168Z,100750.52
2019-04-06T23:42:00.147Z,100752.19
2019-04-06T23:44:28.626Z,100747.34
2019-04-06T23:46:57.625Z,100742.97
2019-04-06T23:49:26.133Z,100745.02
2019-04-06T23:51:54.642Z,100747.55
2019-04-06T23:54:23.104Z,100748.78
2019-04-06T23:56:51.565Z,100751.77
2019-04-06T23:59:20.941Z,100755.14
